Time;durP1;ratioP1;P1;durP2;ratioP2;P2;SDS_P1;SDS_P2;PMS_P1;PMS_P2;Temp;Humidity;BMP_temperature;BMP_pressure;BME280_temperature;BME280_humidity;BME280_pressure;Samples;Min_cycle;Max_cycle;Signal;HPM_P1;HPM_P2
2022/06/29 00:02:36;;;;;;;;;;;18.50;1.00;;;;;;10207114;28;84228;-47
2022/06/29 00:07:36;;;;;;;;;;;18.50;1.00;;;;;;10244474;28;84800;-48
2022/06/29 00:12:37;;;;;;;;;;;18.40;1.00;;;;;;10240702;28;85336;-48
2022/06/29 00:17:38;;;;;;;;;;;18.40;1.00;;;;;;10203818;28;84838;-49
2022/06/29 00:22:40;;;;;;;;;;;18.40;23.70;;;;;;10214668;28;84224;-49
2022/06/29 00:27:41;;;;;;;;;;;18.30;99.90;;;;;;10290753;28;85194;-48
2022/06/29 00:32:41;;;;;;;;;;;18.20;99.90;;;;;;10266767;28;85826;-49
2022/06/29 00:37:42;;;;;;;;;;;18.10;99.90;;;;;;10240914;28;85692;-47
2022/06/29 00:42:42;;;;;;;;;;;18.00;1.00;;;;;;10241404;28;84253;-47
2022/06/29 00:47:43;;;;;;;;;;;18.00;1.00;;;;;;10214326;28;84165;-50
2022/06/29 00:52:44;;;;;;;;;;;17.90;1.00;;;;;;10214865;28;85072;-47
2022/06/29 00:57:46;;;;;;;;;;;17.80;1.00;;;;;;10251754;28;85994;-47
2022/06/29 01:02:47;;;;;;;;;;;17.80;1.00;;;;;;10246662;28;85005;-49
2022/06/29 01:07:47;;;;;;;;;;;17.70;1.00;;;;;;10212616;28;84198;-48
2022/06/29 01:12:49;;;;;;;;;;;17.60;1.00;;;;;;10213987;28;84038;-46
2022/06/29 01:17:49;;;;;;;;;;;17.60;56.70;;;;;;10250376;28;85419;-47
2022/06/29 01:22:52;;;;;;;;;;;17.60;42.50;;;;;;10249864;28;86489;-46
2022/06/29 01:27:52;;;;;;;;;;;17.50;99.90;;;;;;10250418;28;84907;-47
2022/06/29 01:32:53;;;;;;;;;;;17.50;99.90;;;;;;10225349;28;84859;-49
2022/06/29 01:37:54;;;;;;;;;;;17.50;99.90;;;;;;10209190;28;84405;-47
2022/06/29 01:42:55;;;;;;;;;;;17.40;99.90;;;;;;10234245;28;84874;-47
2022/06/29 01:47:56;;;;;;;;;;;17.40;99.90;;;;;;10246731;28;84948;-46
2022/06/29 01:52:57;;;;;;;;;;;17.30;99.90;;;;;;10222836;28;84030;-49
2022/06/29 01:57:57;;;;;;;;;;;17.20;99.90;;;;;;10207840;28;84877;-46
2022/06/29 02:02:58;;;;;;;;;;;17.20;99.90;;;;;;10231457;28;87453;-47
2022/06/29 02:07:58;;;;;;;;;;;17.10;99.90;;;;;;10248084;28;84969;-49
2022/06/29 02:12:59;;;;;;;;;;;17.10;99.90;;;;;;10245447;28;84907;-48
2022/06/29 02:18:01;;;;;;;;;;;17.10;1.00;;;;;;10271357;22;84067;-46
2022/06/29 02:23:01;;;;;;;;;;;17.00;1.00;;;;;;10245502;28;84152;-44
2022/06/29 02:28:02;;;;;;;;;;;17.00;1.00;;;;;;10245152;28;84963;-45
2022/06/29 02:38:22;;;;;;;;;;;17.00;1.00;;;;;;10241523;28;85520;-48
2022/06/29 02:43:22;;;;;;;;;;;17.00;1.00;;;;;;10245011;28;85083;-44
2022/06/29 02:48:23;;;;;;;;;;;16.90;1.00;;;;;;10246836;28;84947;-45
2022/06/29 02:53:24;;;;;;;;;;;17.00;1.00;;;;;;10239127;28;84522;-45
2022/06/29 02:58:24;;;;;;;;;;;16.90;1.00;;;;;;10252078;28;84261;-45
2022/06/29 03:03:25;;;;;;;;;;;16.90;1.00;;;;;;10272433;28;85065;-48
2022/06/29 03:08:25;;;;;;;;;;;16.80;1.00;;;;;;10207451;28;84048;-49
2022/06/29 03:13:26;;;;;;;;;;;16.80;1.00;;;;;;10213438;28;87359;-47
2022/06/29 03:18:26;;;;;;;;;;;16.90;1.00;;;;;;10262011;28;86885;-45
2022/06/29 03:23:27;;;;;;;;;;;16.80;1.00;;;;;;10239812;28;84888;-46
2022/06/29 03:28:27;;;;;;;;;;;16.90;1.00;;;;;;10207177;28;84263;-45
2022/06/29 03:33:28;;;;;;;;;;;16.90;1.00;;;;;;10214343;28;84968;-49
2022/06/29 03:38:29;;;;;;;;;;;16.90;1.00;;;;;;10246502;28;84079;-52
2022/06/29 03:43:30;;;;;;;;;;;16.90;1.00;;;;;;10239742;28;85073;-44
2022/06/29 03:48:30;;;;;;;;;;;16.90;1.00;;;;;;10206309;28;84330;-45
2022/06/29 03:53:31;;;;;;;;;;;16.90;1.00;;;;;;10213733;28;84969;-46
2022/06/29 03:58:31;;;;;;;;;;;16.90;1.00;;;;;;10246051;28;84711;-51
2022/06/29 04:03:32;;;;;;;;;;;16.90;1.00;;;;;;10243168;28;84290;-50
2022/06/29 04:08:33;;;;;;;;;;;16.80;1.00;;;;;;10241461;28;84215;-45
2022/06/29 04:13:33;;;;;;;;;;;16.80;1.00;;;;;;10223105;28;85972;-45
2022/06/29 04:18:34;;;;;;;;;;;16.70;1.00;;;;;;10222874;28;85410;-45
2022/06/29 04:23:34;;;;;;;;;;;16.70;1.00;;;;;;10223242;28;85060;-48
2022/06/29 04:28:36;;;;;;;;;;;16.70;1.00;;;;;;10223774;28;84534;-51
2022/06/29 04:33:36;;;;;;;;;;;16.70;1.00;;;;;;10225394;28;84044;-45
2022/06/29 04:38:37;;;;;;;;;;;16.70;99.90;;;;;;10238877;28;84320;-46
2022/06/29 04:43:37;;;;;;;;;;;16.80;99.90;;;;;;10225475;28;84952;-44
2022/06/29 04:48:38;;;;;;;;;;;16.80;99.90;;;;;;10223070;28;84889;-48
2022/06/29 04:53:39;;;;;;;;;;;16.90;99.90;;;;;;10223663;28;84274;-49
2022/06/29 04:58:40;;;;;;;;;;;16.80;99.90;;;;;;10221241;28;86872;-47
2022/06/29 05:03:41;;;;;;;;;;;16.90;99.90;;;;;;10244594;28;84257;-46
2022/06/29 05:08:42;;;;;;;;;;;17.00;99.90;;;;;;10244269;28;85077;-48
2022/06/29 05:13:42;;;;;;;;;;;17.20;99.90;;;;;;10237634;28;84981;-46
2022/06/29 05:18:43;;;;;;;;;;;17.40;1.00;;;;;;10243469;28;84313;-46
2022/06/29 05:23:44;;;;;;;;;;;17.50;1.00;;;;;;10245796;28;84976;-45
2022/06/29 05:28:44;;;;;;;;;;;17.70;1.00;;;;;;10251154;28;84192;-45
2022/06/29 05:33:45;;;;;;;;;;;18.00;1.00;;;;;;10248788;28;84250;-46
2022/06/29 05:38:46;;;;;;;;;;;18.10;99.90;;;;;;10234737;28;84275;-47
2022/06/29 05:43:51;;;;;;;;;;;18.40;1.00;;;;;;10244595;28;84262;-46
2022/06/29 05:48:51;;;;;;;;;;;18.60;99.90;;;;;;10249066;28;84904;-59
2022/06/29 05:53:52;;;;;;;;;;;18.70;85.80;;;;;;10224702;28;84312;-50
2022/06/29 05:58:52;;;;;;;;;;;19.00;1.00;;;;;;10249076;28;87590;-57
2022/06/29 06:03:53;;;;;;;;;;;19.20;99.90;;;;;;10223977;28;84229;-58
2022/06/29 06:08:53;;;;;;;;;;;19.40;99.90;;;;;;10244080;28;84892;-58
2022/06/29 06:13:54;;;;;;;;;;;19.60;1.00;;;;;;10238273;28;84809;-59
2022/06/29 06:18:54;;;;;;;;;;;19.70;1.00;;;;;;10263527;28;84273;-59
2022/06/29 06:23:55;;;;;;;;;;;20.10;1.00;;;;;;10249752;28;84164;-51
2022/06/29 06:28:55;;;;;;;;;;;20.40;1.00;;;;;;10214884;28;84955;-61
2022/06/29 06:33:56;;;;;;;;;;;20.70;97.30;;;;;;10255397;28;83942;-60
2022/06/29 06:38:57;;;;;;;;;;;21.00;1.00;;;;;;10267632;28;83934;-61
2022/06/29 06:43:58;;;;;;;;;;;21.00;99.90;;;;;;10231617;28;84990;-58
2022/06/29 06:48:59;;;;;;;;;;;21.30;99.90;;;;;;10212910;28;84937;-44
2022/06/29 06:54:00;;;;;;;;;;;21.60;1.00;;;;;;10219178;28;84938;-60
2022/06/29 06:59:00;;;;;;;;;;;21.40;1.00;;;;;;10244294;28;85219;-54
2022/06/29 07:04:01;;;;;;;;;;;21.50;1.00;;;;;;10221931;28;85084;-62
2022/06/29 07:09:01;;;;;;;;;;;21.60;1.00;;;;;;10209323;28;85217;-53
2022/06/29 07:14:02;;;;;;;;;;;21.70;1.00;;;;;;10221314;28;85618;-54
2022/06/29 07:19:02;;;;;;;;;;;22.10;1.00;;;;;;10210963;28;84260;-55
2022/06/29 07:24:03;;;;;;;;;;;22.70;99.90;;;;;;10220915;28;84689;-55
2022/06/29 07:29:04;;;;;;;;;;;23.10;1.00;;;;;;10250504;28;84202;-64
2022/06/29 07:34:04;;;;;;;;;;;23.40;99.90;;;;;;10239715;28;84118;-53
2022/06/29 07:39:05;;;;;;;;;;;23.70;1.00;;;;;;10218236;28;84122;-62
2022/06/29 07:44:05;;;;;;;;;;;23.90;1.00;;;;;;10244143;28;84131;-50
2022/06/29 07:49:06;;;;;;;;;;;24.00;99.90;;;;;;10207100;28;84881;-55
2022/06/29 07:54:06;;;;;;;;;;;23.90;99.90;;;;;;10234579;28;84849;-52
2022/06/29 07:59:07;;;;;;;;;;;23.90;99.90;;;;;;10247162;28;87061;-54
2022/06/29 08:04:07;;;;;;;;;;;23.70;99.90;;;;;;10234097;28;84168;-57
2022/06/29 08:09:08;;;;;;;;;;;23.80;99.90;;;;;;10252940;28;84313;-56
2022/06/29 08:14:09;;;;;;;;;;;23.40;1.00;;;;;;10250325;28;85740;-61
2022/06/29 08:19:09;;;;;;;;;;;23.50;1.00;;;;;;10275508;22;85572;-56
2022/06/29 08:24:10;;;;;;;;;;;23.50;1.00;;;;;;10245626;28;84143;-55
2022/06/29 08:29:11;;;;;;;;;;;23.50;1.00;;;;;;10251900;28;84888;-56
2022/06/29 08:34:13;;;;;;;;;;;23.60;1.00;;;;;;10286647;28;84969;-57
2022/06/29 08:39:13;;;;;;;;;;;23.60;1.00;;;;;;10285693;28;84998;-57
2022/06/29 08:44:15;;;;;;;;;;;23.40;1.00;;;;;;10285634;28;84103;-53
2022/06/29 08:49:15;;;;;;;;;;;23.30;1.00;;;;;;10285258;28;84048;-56
2022/06/29 08:54:16;;;;;;;;;;;23.20;1.00;;;;;;10286948;28;85390;-57
2022/06/29 08:59:17;;;;;;;;;;;23.40;1.00;;;;;;10263192;28;84117;-55
2022/06/29 09:04:18;;;;;;;;;;;23.40;1.00;;;;;;10262277;28;84198;-47
2022/06/29 09:09:19;;;;;;;;;;;23.20;1.00;;;;;;10272489;28;85479;-54
2022/06/29 09:14:21;;;;;;;;;;;23.10;1.00;;;;;;10291564;28;84252;-57
2022/06/29 09:19:22;;;;;;;;;;;23.00;1.00;;;;;;10271820;28;84997;-54
2022/06/29 09:24:28;;;;;;;;;;;23.20;95.80;;;;;;10269304;28;84144;-55
2022/06/29 09:29:30;;;;;;;;;;;23.30;99.90;;;;;;10268956;28;84211;-57
2022/06/29 09:34:30;;;;;;;;;;;23.50;99.90;;;;;;10260418;28;84933;-58
2022/06/29 09:39:32;;;;;;;;;;;23.80;66.10;;;;;;10271134;28;84923;-60
2022/06/29 09:44:33;;;;;;;;;;;24.00;3.70;;;;;;10269314;28;84136;-57
2022/06/29 09:49:34;;;;;;;;;;;24.20;1.00;;;;;;10260093;28;84151;-57
2022/06/29 09:54:50;;;;;;;;;;;24.30;1.00;;;;;;10265360;28;84068;-51
2022/06/29 10:05:12;;;;;;;;;;;24.80;1.00;;;;;;10258580;28;84095;-53
2022/06/29 10:10:14;;;;;;;;;;;25.40;1.00;;;;;;10263806;28;84888;-49
2022/06/29 10:15:14;;;;;;;;;;;25.90;99.90;;;;;;10258891;28;85013;-56
2022/06/29 10:20:15;;;;;;;;;;;26.00;99.90;;;;;;10275496;28;84239;-58
2022/06/29 10:25:15;;;;;;;;;;;25.80;21.90;;;;;;10259057;28;84207;-57
2022/06/29 10:30:23;;;;;;;;;;;25.20;99.90;;;;;;10245587;28;85035;-56
2022/06/29 10:35:24;;;;;;;;;;;25.20;99.90;;;;;;10277692;28;84347;-56
2022/06/29 10:40:26;;;;;;;;;;;25.00;99.90;;;;;;10287861;28;83985;-60
2022/06/29 10:45:34;;;;;;;;;;;24.60;1.00;;;;;;10260019;28;84162;-55
2022/06/29 10:50:38;;;;;;;;;;;24.60;1.00;;;;;;10246978;28;85992;-54
2022/06/29 10:55:59;;;;;;;;;;;24.50;1.00;;;;;;10286716;28;85012;-57
2022/06/29 11:00:59;;;;;;;;;;;24.30;1.00;;;;;;10247669;28;84932;-50
2022/06/29 11:16:39;;;;;;;;;;;24.80;1.00;;;;;;10258319;28;84244;-48
2022/06/29 11:21:39;;;;;;;;;;;24.80;1.00;;;;;;10266253;28;84816;-47
2022/06/29 11:26:40;;;;;;;;;;;25.10;1.00;;;;;;10264958;28;84120;-49
2022/06/29 11:31:41;;;;;;;;;;;25.70;1.00;;;;;;10264783;28;84893;-53
2022/06/29 11:36:41;;;;;;;;;;;25.70;99.90;;;;;;10264015;28;84991;-48
2022/06/29 11:47:08;;;;;;;;;;;26.00;99.90;;;;;;10228794;28;84420;-48
2022/06/29 11:52:12;;;;;;;;;;;26.30;99.90;;;;;;10264305;28;84957;-59
2022/06/29 11:57:15;;;;;;;;;;;25.70;99.90;;;;;;10262969;28;84914;-56
2022/06/29 12:02:16;;;;;;;;;;;25.70;99.90;;;;;;10265077;28;84034;-57
2022/06/29 12:07:17;;;;;;;;;;;26.20;99.90;;;;;;10275750;28;84533;-56
2022/06/29 12:12:18;;;;;;;;;;;26.60;99.90;;;;;;10253904;28;85061;-58
2022/06/29 12:17:18;;;;;;;;;;;26.60;99.90;;;;;;10249627;28;84090;-60
2022/06/29 12:22:19;;;;;;;;;;;26.80;3.10;;;;;;10246022;28;84125;-59
2022/06/29 12:27:20;;;;;;;;;;;26.80;1.00;;;;;;10264406;28;84215;-56
2022/06/29 12:32:21;;;;;;;;;;;26.80;74.50;;;;;;10290755;28;85377;-55
2022/06/29 12:37:22;;;;;;;;;;;26.40;91.40;;;;;;10279782;28;84745;-61
2022/06/29 12:42:23;;;;;;;;;;;26.30;99.90;;;;;;10264850;28;86871;-57
2022/06/29 12:47:23;;;;;;;;;;;26.30;99.90;;;;;;10284371;28;84810;-56
2022/06/29 12:52:24;;;;;;;;;;;26.10;1.00;;;;;;10278429;28;84915;-60
2022/06/29 12:57:25;;;;;;;;;;;26.10;1.00;;;;;;10276529;28;85347;-59
2022/06/29 13:02:25;;;;;;;;;;;26.10;1.00;;;;;;10274212;28;84247;-61
2022/06/29 13:07:26;;;;;;;;;;;25.90;1.00;;;;;;10271386;28;84632;-56
2022/06/29 13:12:27;;;;;;;;;;;26.00;1.00;;;;;;10279932;28;85287;-54
2022/06/29 13:17:27;;;;;;;;;;;26.50;1.00;;;;;;10281365;28;84931;-57
2022/06/29 13:22:28;;;;;;;;;;;26.80;99.90;;;;;;10280184;28;84425;-59
2022/06/29 13:27:28;;;;;;;;;;;27.00;99.90;;;;;;10277215;28;84782;-54
2022/06/29 13:32:29;;;;;;;;;;;28.30;21.90;;;;;;10278660;28;85105;-51
2022/06/29 13:37:30;;;;;;;;;;;28.50;1.00;;;;;;10283270;28;84350;-49
2022/06/29 13:42:30;;;;;;;;;;;28.70;1.00;;;;;;10287017;28;84795;-52
2022/06/29 13:47:31;;;;;;;;;;;28.90;1.00;;;;;;10285412;28;84420;-55
2022/06/29 13:52:31;;;;;;;;;;;29.00;1.00;;;;;;10269297;28;85663;-56
2022/06/29 13:57:32;;;;;;;;;;;29.10;1.00;;;;;;10276838;28;84961;-59
2022/06/29 14:02:34;;;;;;;;;;;28.80;1.00;;;;;;10275203;28;84135;-56
2022/06/29 14:07:35;;;;;;;;;;;28.60;1.00;;;;;;10289761;28;84057;-60
2022/06/29 14:12:36;;;;;;;;;;;28.20;1.00;;;;;;10285370;28;84120;-54
2022/06/29 14:17:36;;;;;;;;;;;27.80;1.00;;;;;;10261425;28;84925;-58
2022/06/29 14:22:37;;;;;;;;;;;27.70;1.00;;;;;;10254299;22;84275;-56
2022/06/29 14:27:37;;;;;;;;;;;27.80;99.90;;;;;;10242634;28;84887;-59
2022/06/29 14:32:41;;;;;;;;;;;27.40;99.90;;;;;;10248042;28;85409;-54
2022/06/29 14:37:41;;;;;;;;;;;27.80;99.90;;;;;;10236769;28;86982;-53
2022/06/29 14:42:42;;;;;;;;;;;27.70;99.90;;;;;;10209884;28;84957;-53
2022/06/29 14:47:42;;;;;;;;;;;28.00;99.90;;;;;;10209440;28;85104;-49
2022/06/29 14:52:43;;;;;;;;;;;28.00;99.90;;;;;;10207067;28;85009;-51
2022/06/29 14:57:46;;;;;;;;;;;28.20;99.90;;;;;;10244413;28;84150;-52
2022/06/29 15:02:46;;;;;;;;;;;28.40;86.80;;;;;;10232242;28;84101;-49
2022/06/29 15:07:47;;;;;;;;;;;28.50;29.80;;;;;;10219299;28;84695;-51
2022/06/29 15:12:47;;;;;;;;;;;28.70;14.00;;;;;;10222055;28;85104;-48
2022/06/29 15:17:48;;;;;;;;;;;28.50;1.00;;;;;;10243740;28;84561;-51
2022/06/29 15:22:48;;;;;;;;;;;28.40;1.00;;;;;;10247550;28;84331;-61
2022/06/29 15:27:49;;;;;;;;;;;28.40;1.00;;;;;;10249622;28;84211;-54
2022/06/29 15:32:50;;;;;;;;;;;28.20;1.00;;;;;;10248713;28;84173;-55
2022/06/29 15:38:50;;;;;;;;;;;28.20;1.00;;;;;;10225539;28;86695;-51
2022/06/29 15:43:20;;;;;;;;;;;28.00;1.00;;;;;;10234017;28;84986;-53
2022/06/29 15:48:21;;;;;;;;;;;28.00;1.00;;;;;;10228400;28;84354;-52
2022/06/29 15:58:41;;;;;;;;;;;27.90;1.00;;;;;;10213835;28;84023;-55
2022/06/29 16:03:41;;;;;;;;;;;27.50;1.00;;;;;;10211490;28;84614;-53
2022/06/29 16:08:42;;;;;;;;;;;27.60;1.00;;;;;;10231694;28;84350;-53
2022/06/29 16:13:42;;;;;;;;;;;27.70;1.00;;;;;;10243840;28;84185;-54
2022/06/29 16:18:43;;;;;;;;;;;27.80;1.00;;;;;;10240926;28;85097;-51
2022/06/29 16:23:43;;;;;;;;;;;27.60;1.00;;;;;;10241654;28;84466;-54
2022/06/29 16:28:44;;;;;;;;;;;27.40;1.00;;;;;;10245536;28;84075;-51
2022/06/29 16:33:45;;;;;;;;;;;27.30;7.10;;;;;;10241000;28;84706;-55
2022/06/29 16:38:46;;;;;;;;;;;27.20;99.90;;;;;;10239379;28;85271;-48
2022/06/29 16:43:47;;;;;;;;;;;27.20;99.90;;;;;;10229293;28;84905;-52
2022/06/29 16:48:47;;;;;;;;;;;27.10;99.90;;;;;;10229810;28;84947;-52
2022/06/29 16:53:48;;;;;;;;;;;27.10;99.90;;;;;;10230313;28;85016;-53
2022/06/29 16:58:48;;;;;;;;;;;27.30;99.90;;;;;;10226607;28;85292;-51
2022/06/29 17:03:49;;;;;;;;;;;27.60;99.90;;;;;;10240506;28;85032;-48
2022/06/29 17:08:50;;;;;;;;;;;27.70;99.90;;;;;;10236658;28;84525;-53
2022/06/29 17:13:51;;;;;;;;;;;27.60;65.50;;;;;;10230473;28;84933;-54
2022/06/29 17:18:53;;;;;;;;;;;27.60;99.90;;;;;;10223705;28;84105;-53
2022/06/29 17:23:54;;;;;;;;;;;27.50;99.90;;;;;;10254696;28;85082;-51
2022/06/29 17:28:55;;;;;;;;;;;27.50;99.90;;;;;;10273560;28;84868;-53
2022/06/29 17:33:55;;;;;;;;;;;27.50;99.90;;;;;;10274329;28;84253;-52
2022/06/29 17:38:56;;;;;;;;;;;27.60;99.90;;;;;;10237288;28;84290;-47
2022/06/29 17:43:57;;;;;;;;;;;27.40;99.90;;;;;;10243373;28;84154;-53
2022/06/29 17:48:57;;;;;;;;;;;27.30;99.90;;;;;;10255298;28;84244;-56
2022/06/29 17:53:58;;;;;;;;;;;27.30;99.90;;;;;;10242507;28;84934;-48
2022/06/29 17:58:59;;;;;;;;;;;27.40;99.90;;;;;;10264295;28;84214;-53
2022/06/29 18:03:59;;;;;;;;;;;27.20;99.90;;;;;;10271238;28;84719;-53
2022/06/29 18:09:00;;;;;;;;;;;27.10;1.00;;;;;;10244673;28;84525;-54
2022/06/29 18:14:01;;;;;;;;;;;27.10;1.00;;;;;;10250877;28;84223;-52
2022/06/29 18:19:03;;;;;;;;;;;27.10;1.00;;;;;;10247285;28;84096;-49
2022/06/29 18:24:05;;;;;;;;;;;27.10;99.90;;;;;;10246439;28;84741;-53
2022/06/29 18:29:05;;;;;;;;;;;27.00;1.00;;;;;;10250874;28;84312;-47
2022/06/29 18:34:06;;;;;;;;;;;26.80;97.60;;;;;;10240939;28;84879;-50
2022/06/29 18:39:06;;;;;;;;;;;26.60;1.00;;;;;;10245239;28;84306;-50
2022/06/29 18:44:07;;;;;;;;;;;26.40;1.00;;;;;;10252996;28;85292;-54
2022/06/29 18:49:09;;;;;;;;;;;26.30;1.00;;;;;;10240685;28;84911;-50
2022/06/29 18:54:09;;;;;;;;;;;26.20;1.00;;;;;;10236354;28;84930;-57
2022/06/29 18:59:10;;;;;;;;;;;26.00;1.00;;;;;;10236223;28;84908;-48
2022/06/29 19:04:11;;;;;;;;;;;26.00;1.00;;;;;;10231822;28;86719;-50
2022/06/29 19:09:17;;;;;;;;;;;25.80;72.90;;;;;;10234316;28;84831;-47
2022/06/29 19:14:17;;;;;;;;;;;25.70;1.00;;;;;;10234478;28;84737;-53
2022/06/29 19:19:18;;;;;;;;;;;25.70;99.90;;;;;;10234039;28;84921;-54
2022/06/29 19:24:20;;;;;;;;;;;25.60;1.00;;;;;;10235036;28;84394;-46
2022/06/29 19:29:21;;;;;;;;;;;25.50;1.00;;;;;;10236265;28;85978;-51
2022/06/29 19:34:21;;;;;;;;;;;25.40;99.90;;;;;;10233393;28;84247;-54
2022/06/29 19:39:22;;;;;;;;;;;25.20;1.00;;;;;;10234480;28;84243;-47
2022/06/29 19:44:22;;;;;;;;;;;25.00;99.90;;;;;;10241717;28;86648;-50
2022/06/29 19:49:23;;;;;;;;;;;25.10;99.90;;;;;;10224918;28;84771;-53
2022/06/29 19:54:23;;;;;;;;;;;24.90;1.00;;;;;;10210762;28;84823;-48
2022/06/29 19:59:24;;;;;;;;;;;24.80;1.00;;;;;;10210310;28;85454;-45
2022/06/29 20:04:26;;;;;;;;;;;24.70;99.90;;;;;;10220461;28;84023;-51
2022/06/29 20:09:31;;;;;;;;;;;24.60;1.00;;;;;;10220062;28;84963;-49
2022/06/29 20:14:33;;;;;;;;;;;24.50;1.00;;;;;;10231789;28;84232;-49
2022/06/29 20:19:33;;;;;;;;;;;24.30;99.90;;;;;;10260956;22;87164;-48
2022/06/29 20:24:34;;;;;;;;;;;24.20;99.90;;;;;;10206141;28;84823;-47
2022/06/29 20:29:34;;;;;;;;;;;24.00;99.90;;;;;;10234279;28;84174;-48
2022/06/29 20:34:35;;;;;;;;;;;24.00;1.00;;;;;;10244375;28;83958;-46
2022/06/29 20:39:35;;;;;;;;;;;23.90;99.90;;;;;;10244419;28;84900;-48
2022/06/29 20:49:55;;;;;;;;;;;23.60;99.90;;;;;;10244188;28;84974;-50
2022/06/29 20:54:56;;;;;;;;;;;23.50;99.90;;;;;;10249676;28;84026;-47
2022/06/29 20:59:56;;;;;;;;;;;23.30;99.90;;;;;;10251560;28;84218;-46
2022/06/29 21:04:57;;;;;;;;;;;23.20;99.90;;;;;;10250656;28;84125;-47
2022/06/29 21:09:58;;;;;;;;;;;23.00;99.90;;;;;;10251916;28;84288;-46
2022/06/29 21:15:00;;;;;;;;;;;23.00;99.90;;;;;;10250518;28;84251;-50
2022/06/29 21:20:04;;;;;;;;;;;22.90;99.90;;;;;;10255436;28;86098;-46
2022/06/29 21:25:05;;;;;;;;;;;22.80;99.90;;;;;;10249055;28;84592;-48
2022/06/29 21:30:06;;;;;;;;;;;22.60;99.90;;;;;;10234234;28;84231;-47
2022/06/29 21:35:07;;;;;;;;;;;22.50;1.00;;;;;;10234499;28;85823;-46
2022/06/29 21:40:08;;;;;;;;;;;22.40;1.00;;;;;;10233242;28;84273;-49
2022/06/29 21:45:09;;;;;;;;;;;22.30;1.00;;;;;;10248574;28;86085;-46
2022/06/29 21:55:30;;;;;;;;;;;22.00;1.00;;;;;;10249239;28;84328;-46
2022/06/29 22:00:31;;;;;;;;;;;21.90;1.00;;;;;;10250178;28;85009;-48
2022/06/29 22:05:31;;;;;;;;;;;21.90;15.20;;;;;;10246271;28;84980;-46
2022/06/29 22:10:32;;;;;;;;;;;21.80;49.30;;;;;;10248848;28;87279;-47
2022/06/29 22:15:32;;;;;;;;;;;21.70;99.90;;;;;;10249278;28;84219;-46
2022/06/29 22:20:33;;;;;;;;;;;21.70;99.90;;;;;;10229008;28;85832;-47
2022/06/29 22:25:33;;;;;;;;;;;21.60;99.90;;;;;;10223045;28;86685;-48
2022/06/29 22:30:34;;;;;;;;;;;21.40;99.90;;;;;;10208300;28;85189;-46
2022/06/29 22:35:35;;;;;;;;;;;21.30;99.90;;;;;;10209651;28;85301;-46
2022/06/29 22:40:36;;;;;;;;;;;21.40;99.90;;;;;;10208094;28;84228;-46
2022/06/29 22:45:36;;;;;;;;;;;21.30;99.90;;;;;;10209653;28;84018;-49
2022/06/29 22:50:37;;;;;;;;;;;21.10;1.00;;;;;;10207944;28;85164;-45
2022/06/29 22:55:38;;;;;;;;;;;21.00;1.00;;;;;;10206317;28;84808;-50
2022/06/29 23:00:38;;;;;;;;;;;21.00;1.00;;;;;;10229616;28;84319;-48
2022/06/29 23:05:39;;;;;;;;;;;21.00;1.00;;;;;;10245563;28;85839;-48
2022/06/29 23:15:59;;;;;;;;;;;20.80;1.00;;;;;;10244444;28;84745;-46
2022/06/29 23:20:59;;;;;;;;;;;20.80;1.00;;;;;;10245087;28;84815;-47
2022/06/29 23:26:00;;;;;;;;;;;20.70;1.00;;;;;;10247389;28;84886;-49
2022/06/29 23:31:00;;;;;;;;;;;20.70;1.00;;;;;;10247884;28;84234;-48
2022/06/29 23:36:01;;;;;;;;;;;20.60;1.00;;;;;;10246619;28;84170;-46
2022/06/29 23:41:02;;;;;;;;;;;20.60;1.00;;;;;;10210093;28;84454;-47
2022/06/29 23:46:03;;;;;;;;;;;20.70;1.00;;;;;;10206323;28;85089;-47
2022/06/29 23:51:03;;;;;;;;;;;20.80;1.00;;;;;;10208165;28;84229;-46
2022/06/29 23:56:04;;;;;;;;;;;20.80;1.00;;;;;;10245529;28;84801;-46
